Time,TemperatureF,DewpointF,PressureIn,WindDirection,WindDirectionDegrees,WindSpeedMPH,WindSpeedGustMPH,Humidity,HourlyPrecipIn,Conditions,Clouds,dailyrainin,SoftwareType,DateUTC
2013-05-07 00:01:00,51.3,20.9,30.00,SE,127,15.0,15.0,30,0.00,,---,0.00,VWS V14.01,2013-05-07 06:01:00,
2013-05-07 00:06:00,51.1,21.5,30.00,SE,130,14.1,17.0,31,0.00,,---,0.00,VWS V14.01,2013-05-07 06:06:00,
2013-05-07 00:11:00,50.7,21.2,30.00,ESE,119,12.8,15.9,31,0.00,,---,0.00,VWS V14.01,2013-05-07 06:11:00,
2013-05-07 00:17:00,50.5,21.0,30.00,SE,126,17.4,17.4,31,0.00,,---,0.00,VWS V14.01,2013-05-07 06:17:00,
2013-05-07 00:22:00,50.5,21.8,30.00,ESE,122,15.0,15.4,32,0.00,,---,0.00,VWS V14.01,2013-05-07 06:22:00,
2013-05-07 00:27:00,50.4,21.6,30.00,SE,134,15.4,15.4,32,0.00,,---,0.00,VWS V14.01,2013-05-07 06:27:00,
2013-05-07 00:32:00,50.2,21.5,30.00,SE,131,14.5,15.0,32,0.00,,---,0.00,VWS V14.01,2013-05-07 06:32:00,
2013-05-07 00:38:00,50.2,22.2,29.97,SE,131,14.5,15.0,33,0.00,,---,0.00,VWS V14.01,2013-05-07 06:38:00,
2013-05-07 00:43:00,50.2,22.2,29.97,SE,134,14.1,17.0,33,0.00,,---,0.00,VWS V14.01,2013-05-07 06:43:00,
2013-05-07 00:49:00,50.0,22.8,29.97,SE,124,15.4,15.4,34,0.00,,---,0.00,VWS V14.01,2013-05-07 06:49:00,
2013-05-07 00:55:00,50.0,22.8,29.97,ESE,119,14.5,14.5,34,0.00,,---,0.00,VWS V14.01,2013-05-07 06:55:00,
2013-05-07 01:00:00,50.0,22.8,29.97,SE,127,15.9,15.9,34,0.00,,---,0.00,VWS V14.01,2013-05-07 07:00:00,
2013-05-07 01:06:00,49.8,23.3,29.97,ESE,121,17.0,19.2,35,0.00,,---,0.00,VWS V14.01,2013-05-07 07:06:00,
2013-05-07 01:11:00,49.8,23.3,29.97,ESE,115,17.9,17.9,35,0.00,,---,0.00,VWS V14.01,2013-05-07 07:11:00,
2013-05-07 01:17:00,49.8,24.0,29.97,SE,132,16.8,17.0,36,0.00,,---,0.00,VWS V14.01,2013-05-07 07:17:00,
2013-05-07 01:22:00,49.8,24.0,29.97,SE,127,17.0,17.0,36,0.00,,---,0.00,VWS V14.01,2013-05-07 07:22:00,
2013-05-07 01:28:00,49.8,24.0,29.97,ESE,108,15.0,15.0,36,0.00,,---,0.00,VWS V14.01,2013-05-07 07:28:00,
2013-05-07 01:33:00,49.8,24.0,29.97,SE,127,15.4,17.0,36,0.00,,---,0.00,VWS V14.01,2013-05-07 07:33:00,
2013-05-07 01:38:00,49.8,24.0,29.97,ESE,121,15.4,16.8,36,0.00,,---,0.00,VWS V14.01,2013-05-07 07:38:00,
2013-05-07 01:44:00,49.6,23.8,29.97,ESE,116,15.4,17.4,36,0.00,,---,0.00,VWS V14.01,2013-05-07 07:44:00,
2013-05-07 01:49:00,49.6,23.8,29.97,ESE,109,15.4,19.7,36,0.00,,---,0.00,VWS V14.01,2013-05-07 07:49:00,
2013-05-07 01:55:00,49.5,23.6,29.97,ESE,120,21.5,21.5,36,0.00,,---,0.00,VWS V14.01,2013-05-07 07:55:00,
2013-05-07 02:00:00,49.5,24.3,29.97,ESE,120,19.7,19.7,37,0.00,,---,0.00,VWS V14.01,2013-05-07 08:00:00,
2013-05-07 02:05:00,49.5,24.3,29.97,ESE,120,18.3,19.7,37,0.00,,---,0.00,VWS V14.01,2013-05-07 08:05:00,
2013-05-07 02:10:00,49.3,24.1,29.97,ESE,123,18.3,18.3,37,0.00,,---,0.00,VWS V14.01,2013-05-07 08:10:00,
2013-05-07 02:16:00,49.3,24.1,29.97,SE,131,17.4,18.8,37,0.00,,---,0.00,VWS V14.01,2013-05-07 08:16:00,
2013-05-07 02:21:00,49.3,24.1,29.97,SE,126,17.0,17.0,37,0.00,,---,0.00,VWS V14.01,2013-05-07 08:21:00,
2013-05-07 02:26:00,49.1,24.0,29.97,SE,136,14.5,14.5,37,0.00,,---,0.00,VWS V14.01,2013-05-07 08:26:00,
2013-05-07 02:31:00,49.1,24.0,29.94,ESE,113,16.8,19.7,37,0.00,,---,0.00,VWS V14.01,2013-05-07 08:31:00,
2013-05-07 02:37:00,49.1,24.6,29.94,ESE,123,17.4,17.4,38,0.00,,---,0.00,VWS V14.01,2013-05-07 08:37:00,
2013-05-07 02:42:00,49.1,24.6,29.94,ESE,114,17.0,17.0,38,0.00,,---,0.00,VWS V14.01,2013-05-07 08:42:00,
2013-05-07 02:48:00,49.1,25.2,29.94,SE,125,15.4,18.3,39,0.00,,---,0.00,VWS V14.01,2013-05-07 08:48:00,
2013-05-07 02:54:00,49.1,25.2,29.94,SE,130,16.8,19.7,39,0.00,,---,0.00,VWS V14.01,2013-05-07 08:54:00,
2013-05-07 02:59:00,49.1,25.2,29.94,ESE,119,17.4,21.5,39,0.00,,---,0.00,VWS V14.01,2013-05-07 08:59:00,
2013-05-07 03:05:00,49.3,26.0,29.94,ESE,117,17.4,17.4,40,0.00,,---,0.00,VWS V14.01,2013-05-07 09:05:00,
2013-05-07 03:10:00,49.3,26.0,29.94,ESE,120,18.3,18.3,40,0.00,,---,0.00,VWS V14.01,2013-05-07 09:10:00,
2013-05-07 03:15:00,49.5,26.8,29.94,ESE,117,15.4,17.0,41,0.00,,---,0.00,VWS V14.01,2013-05-07 09:15:00,
2013-05-07 03:20:00,49.5,26.8,29.94,ESE,115,16.3,17.0,41,0.00,,---,0.00,VWS V14.01,2013-05-07 09:20:00,
2013-05-07 03:25:00,49.5,26.8,29.94,SE,124,15.4,18.3,41,0.00,,---,0.00,VWS V14.01,2013-05-07 09:25:00,
2013-05-07 03:30:00,49.5,26.8,29.94,ESE,116,17.4,17.4,41,0.00,,---,0.00,VWS V14.01,2013-05-07 09:30:00,
2013-05-07 03:36:00,49.5,26.8,29.94,ESE,114,13.2,13.2,41,0.00,,---,0.00,VWS V14.01,2013-05-07 09:36:00,
2013-05-07 03:41:00,49.3,26.6,29.94,ESE,110,15.0,15.0,41,0.00,,---,0.00,VWS V14.01,2013-05-07 09:41:00,
2013-05-07 03:46:00,49.3,27.2,29.94,ESE,102,12.8,12.8,42,0.00,,---,0.00,VWS V14.01,2013-05-07 09:46:00,
2013-05-07 03:52:00,49.1,27.0,29.94,ESE,106,13.2,16.3,42,0.00,,---,0.00,VWS V14.01,2013-05-07 09:52:00,
2013-05-07 03:58:00,49.1,27.0,29.94,ESE,107,11.9,13.2,42,0.00,,---,0.00,VWS V14.01,2013-05-07 09:58:00,
2013-05-07 04:04:00,48.9,26.9,29.94,ESE,108,12.8,12.8,42,0.00,,---,0.00,VWS V14.01,2013-05-07 10:04:00,
2013-05-07 04:09:00,48.7,26.7,29.94,East,100,13.6,13.6,42,0.00,,---,0.00,VWS V14.01,2013-05-07 10:09:00,
2013-05-07 04:15:00,48.4,26.4,29.94,ESE,110,15.0,15.0,42,0.00,,---,0.00,VWS V14.01,2013-05-07 10:15:00,
2013-05-07 04:20:00,48.2,26.8,29.94,ESE,108,12.3,13.6,43,0.00,,---,0.00,VWS V14.01,2013-05-07 10:20:00,
2013-05-07 04:25:00,48.2,26.8,29.94,ESE,109,15.4,15.4,43,0.00,,---,0.00,VWS V14.01,2013-05-07 10:25:00,
2013-05-07 04:30:00,48.4,27.5,29.94,ESE,106,15.9,15.9,44,0.00,,---,0.00,VWS V14.01,2013-05-07 10:30:00,
2013-05-07 04:36:00,48.6,28.2,29.94,ESE,105,15.0,15.4,45,0.00,,---,0.00,VWS V14.01,2013-05-07 10:36:00,
2013-05-07 04:41:00,48.7,28.9,29.94,ESE,113,15.4,15.4,46,0.00,,---,0.00,VWS V14.01,2013-05-07 10:41:00,
2013-05-07 04:47:00,48.7,28.9,29.94,ESE,108,12.8,12.8,46,0.00,,---,0.00,VWS V14.01,2013-05-07 10:47:00,
2013-05-07 04:53:00,48.7,28.9,29.94,ESE,102,12.3,12.8,46,0.00,,---,0.00,VWS V14.01,2013-05-07 10:53:00,
2013-05-07 04:58:00,48.7,29.4,29.94,ESE,103,11.0,12.8,47,0.00,,---,0.00,VWS V14.01,2013-05-07 10:58:00,
2013-05-07 05:04:00,48.7,29.4,29.94,ESE,118,13.6,13.6,47,0.00,,---,0.00,VWS V14.01,2013-05-07 11:04:00,
2013-05-07 05:09:00,48.7,29.4,29.94,ESE,114,13.2,13.2,47,0.00,,---,0.00,VWS V14.01,2013-05-07 11:09:00,
2013-05-07 05:15:00,48.9,30.1,29.94,ESE,104,14.5,14.5,48,0.00,,---,0.00,VWS V14.01,2013-05-07 11:15:00,
2013-05-07 05:21:00,48.9,30.1,29.94,ESE,102,14.1,14.1,48,0.00,,---,0.00,VWS V14.01,2013-05-07 11:21:00,
2013-05-07 05:26:00,49.1,30.8,29.94,ESE,112,17.4,17.4,49,0.00,,---,0.00,VWS V14.01,2013-05-07 11:26:00,
2013-05-07 05:32:00,49.1,30.8,29.94,ESE,107,14.1,14.1,49,0.00,,---,0.00,VWS V14.01,2013-05-07 11:32:00,
2013-05-07 05:37:00,49.3,31.0,29.94,ESE,103,12.3,14.5,49,0.00,,---,0.00,VWS V14.01,2013-05-07 11:37:00,
2013-05-07 05:43:00,49.5,31.1,29.94,ESE,107,11.0,11.0,49,0.00,,---,0.00,VWS V14.01,2013-05-07 11:43:00,
2013-05-07 05:49:00,49.6,31.8,29.94,ESE,103,13.2,13.2,50,0.00,,---,0.00,VWS V14.01,2013-05-07 11:49:00,
2013-05-07 05:54:00,49.6,31.8,29.94,ESE,102,9.2,9.2,50,0.00,,---,0.00,VWS V14.01,2013-05-07 11:54:00,
2013-05-07 05:59:00,49.8,31.9,29.94,ESE,110,11.0,11.0,50,0.00,,---,0.00,VWS V14.01,2013-05-07 11:59:00,
2013-05-07 06:04:00,49.8,31.9,29.94,East,101,10.5,10.5,50,0.00,,---,0.00,VWS V14.01,2013-05-07 12:04:00,
2013-05-07 06:10:00,50.4,32.4,29.91,ESE,121,15.4,16.8,50,0.00,,---,0.00,VWS V14.01,2013-05-07 12:10:00,
2013-05-07 06:15:00,50.4,32.4,29.91,SE,133,18.3,18.3,50,0.00,,---,0.00,VWS V14.01,2013-05-07 12:15:00,
2013-05-07 06:21:00,50.9,33.9,29.91,SE,135,20.1,20.1,52,0.00,,---,0.00,VWS V14.01,2013-05-07 12:21:00,
2013-05-07 06:26:00,51.3,34.7,29.91,SSE,147,20.1,20.1,53,0.00,,---,0.00,VWS V14.01,2013-05-07 12:26:00,
2013-05-07 06:32:00,51.4,35.4,29.94,SE,141,18.8,18.8,54,0.00,,---,0.00,VWS V14.01,2013-05-07 12:32:00,
2013-05-07 06:37:00,51.4,35.4,29.94,SE,141,22.4,22.4,54,0.00,,---,0.00,VWS V14.01,2013-05-07 12:37:00,
2013-05-07 06:43:00,51.6,36.5,29.94,SE,137,23.7,23.7,56,0.00,,---,0.00,VWS V14.01,2013-05-07 12:43:00,
2013-05-07 06:49:00,51.8,37.5,29.94,SE,130,24.2,24.2,58,0.00,,---,0.00,VWS V14.01,2013-05-07 12:49:00,
2013-05-07 06:54:00,52.0,37.7,29.94,SE,133,20.6,20.6,58,0.00,,---,0.00,VWS V14.01,2013-05-07 12:54:00,
2013-05-07 07:00:00,52.2,38.7,29.94,SE,130,22.8,23.3,60,0.00,,---,0.00,VWS V14.01,2013-05-07 13:00:00,
2013-05-07 07:06:00,52.3,38.9,29.94,SE,137,18.3,19.7,60,0.00,,---,0.00,VWS V14.01,2013-05-07 13:06:00,
2013-05-07 07:11:00,52.5,39.5,29.94,SE,142,20.6,21.0,61,0.00,,---,0.00,VWS V14.01,2013-05-07 13:11:00,
2013-05-07 07:17:00,52.9,39.8,29.94,SE,130,24.2,24.2,61,0.00,,---,0.00,VWS V14.01,2013-05-07 13:17:00,
2013-05-07 07:22:00,53.1,40.0,29.94,SE,124,19.7,19.7,61,0.00,,---,0.00,VWS V14.01,2013-05-07 13:22:00,
2013-05-07 07:28:00,53.1,40.0,29.94,SE,130,20.6,20.6,61,0.00,,---,0.00,VWS V14.01,2013-05-07 13:28:00,
2013-05-07 07:34:00,53.2,39.7,29.94,SE,136,22.4,22.4,60,0.00,,---,0.00,VWS V14.01,2013-05-07 13:34:00,
2013-05-07 07:39:00,53.2,39.7,29.94,SE,129,25.1,25.1,60,0.00,,---,0.00,VWS V14.01,2013-05-07 13:39:00,
2013-05-07 07:45:00,53.2,39.7,29.94,SE,126,22.8,25.1,60,0.00,,---,0.00,VWS V14.01,2013-05-07 13:45:00,
2013-05-07 07:50:00,53.8,40.2,29.94,ESE,121,22.4,22.4,60,0.00,,---,0.00,VWS V14.01,2013-05-07 13:50:00,
2013-05-07 07:56:00,54.1,40.1,29.94,SE,129,22.4,22.4,59,0.00,,---,0.00,VWS V14.01,2013-05-07 13:56:00,
2013-05-07 08:02:00,54.7,40.2,29.94,SE,132,17.4,17.4,58,0.00,,---,0.00,VWS V14.01,2013-05-07 14:02:00,
2013-05-07 08:07:00,55.4,40.4,29.94,SE,126,23.3,23.3,57,0.00,,---,0.00,VWS V14.01,2013-05-07 14:07:00,
2013-05-07 08:12:00,55.4,40.4,29.94,SE,136,16.3,16.3,57,0.00,,---,0.00,VWS V14.01,2013-05-07 14:12:00,
2013-05-07 08:17:00,56.3,40.4,29.94,SE,144,24.2,24.2,55,0.00,,---,0.00,VWS V14.01,2013-05-07 14:17:00,
2013-05-07 08:23:00,58.3,40.2,29.94,SE,127,22.8,22.8,51,0.00,,---,0.00,VWS V14.01,2013-05-07 14:23:00,
2013-05-07 08:28:00,59.0,38.3,29.94,SE,126,27.5,27.5,46,0.00,,---,0.00,VWS V14.01,2013-05-07 14:28:00,
2013-05-07 08:34:00,59.5,37.6,29.94,SE,134,30.6,30.6,44,0.00,,---,0.00,VWS V14.01,2013-05-07 14:34:00,
2013-05-07 08:39:00,60.3,37.1,29.97,ESE,122,25.5,28.0,42,0.00,,---,0.00,VWS V14.01,2013-05-07 14:39:00,
2013-05-07 08:44:00,59.9,36.2,29.97,SE,127,22.8,24.2,41,0.00,,---,0.00,VWS V14.01,2013-05-07 14:44:00,
2013-05-07 08:49:00,59.9,36.2,29.97,SE,126,26.6,26.6,41,0.00,,---,0.00,VWS V14.01,2013-05-07 14:49:00,
2013-05-07 08:54:00,60.1,35.7,29.97,SE,130,22.4,22.4,40,0.00,,---,0.00,VWS V14.01,2013-05-07 14:54:00,
2013-05-07 09:00:00,60.1,35.1,29.97,ESE,122,18.3,18.8,39,0.00,,---,0.00,VWS V14.01,2013-05-07 15:00:00,
2013-05-07 09:05:00,60.1,34.4,29.97,SE,131,22.8,22.8,38,0.00,,---,0.00,VWS V14.01,2013-05-07 15:05:00,
2013-05-07 09:10:00,59.9,34.2,29.97,SE,142,23.7,23.7,38,0.00,,---,0.00,VWS V14.01,2013-05-07 15:10:00,
2013-05-07 09:16:00,59.9,34.2,29.97,SSE,158,22.4,22.4,38,0.00,,---,0.00,VWS V14.01,2013-05-07 15:16:00,
2013-05-07 09:21:00,59.9,34.2,29.97,ESE,123,27.1,27.1,38,0.00,,---,0.00,VWS V14.01,2013-05-07 15:21:00,
2013-05-07 09:27:00,60.4,34.1,29.97,ESE,123,19.2,19.2,37,0.00,,---,0.00,VWS V14.01,2013-05-07 15:27:00,
2013-05-07 09:33:00,61.3,34.2,29.97,SE,141,25.1,25.5,36,0.00,,---,0.00,VWS V14.01,2013-05-07 15:33:00,
2013-05-07 09:38:00,61.3,34.2,29.97,SE,145,28.9,28.9,36,0.00,,---,0.00,VWS V14.01,2013-05-07 15:38:00,
2013-05-07 09:44:00,61.3,34.2,29.97,SE,128,22.8,22.8,36,0.00,,---,0.00,VWS V14.01,2013-05-07 15:44:00,
2013-05-07 09:49:00,61.3,34.2,29.97,SE,141,23.3,24.2,36,0.00,,---,0.00,VWS V14.01,2013-05-07 15:49:00,
2013-05-07 09:54:00,61.7,34.5,29.97,SE,137,21.0,21.0,36,0.00,,---,0.00,VWS V14.01,2013-05-07 15:54:00,
2013-05-07 09:59:00,61.7,34.5,29.97,SE,142,28.0,28.0,36,0.00,,---,0.00,VWS V14.01,2013-05-07 15:59:00,
2013-05-07 10:05:00,61.7,35.2,29.97,SSE,156,17.4,20.6,37,0.00,,---,0.00,VWS V14.01,2013-05-07 16:05:00,
2013-05-07 10:10:00,62.6,35.3,29.97,SE,133,21.5,21.5,36,0.00,,---,0.00,VWS V14.01,2013-05-07 16:10:00,
2013-05-07 10:16:00,63.0,35.6,29.97,SSE,152,25.1,25.1,36,0.00,,---,0.00,VWS V14.01,2013-05-07 16:16:00,
2013-05-07 10:22:00,63.5,35.4,29.97,SSE,149,22.4,22.4,35,0.00,,---,0.00,VWS V14.01,2013-05-07 16:22:00,
2013-05-07 10:27:00,63.7,35.5,29.97,ESE,123,24.2,24.2,35,0.00,,---,0.00,VWS V14.01,2013-05-07 16:27:00,
2013-05-07 10:32:00,63.3,35.2,29.97,SE,141,27.5,27.5,35,0.00,,---,0.00,VWS V14.01,2013-05-07 16:32:00,
2013-05-07 10:37:00,63.3,35.2,29.97,SE,141,17.4,17.4,35,0.00,,---,0.00,VWS V14.01,2013-05-07 16:37:00,
2013-05-07 10:43:00,63.3,35.2,29.97,SE,141,19.2,20.6,35,0.00,,---,0.00,VWS V14.01,2013-05-07 16:43:00,
2013-05-07 10:48:00,63.3,35.2,29.97,SE,139,17.4,17.9,35,0.00,,---,0.00,VWS V14.01,2013-05-07 16:48:00,
2013-05-07 10:53:00,63.9,35.7,29.97,SE,137,18.3,20.1,35,0.00,,---,0.00,VWS V14.01,2013-05-07 16:53:00,
2013-05-07 10:58:00,64.6,35.6,29.97,SE,141,22.4,22.4,34,0.00,,---,0.00,VWS V14.01,2013-05-07 16:58:00,
2013-05-07 11:03:00,64.6,35.6,29.97,SSE,162,18.8,18.8,34,0.00,,---,0.00,VWS V14.01,2013-05-07 17:03:00,
2013-05-07 11:08:00,64.8,35.8,29.97,SE,146,19.7,19.7,34,0.00,,---,0.00,VWS V14.01,2013-05-07 17:08:00,
2013-05-07 11:14:00,63.9,35.7,29.97,SE,144,23.3,23.3,35,0.00,,---,0.00,VWS V14.01,2013-05-07 17:14:00,
2013-05-07 11:19:00,64.0,35.9,29.97,SSE,157,18.3,18.3,35,0.00,,---,0.00,VWS V14.01,2013-05-07 17:19:00,
2013-05-07 11:25:00,64.2,36.0,29.94,SE,128,19.2,19.2,35,0.00,,---,0.00,VWS V14.01,2013-05-07 17:25:00,
2013-05-07 11:30:00,64.4,35.5,29.94,SE,134,22.4,22.4,34,0.00,,---,0.00,VWS V14.01,2013-05-07 17:30:00,
2013-05-07 11:36:00,64.9,35.9,29.94,SE,136,21.5,23.7,34,0.00,,---,0.00,VWS V14.01,2013-05-07 17:36:00,
2013-05-07 11:41:00,64.9,35.9,29.94,SSE,151,20.6,20.6,34,0.00,,---,0.00,VWS V14.01,2013-05-07 17:41:00,
2013-05-07 11:47:00,65.1,36.1,29.97,SE,141,23.3,23.3,34,0.00,,---,0.00,VWS V14.01,2013-05-07 17:47:00,
2013-05-07 11:53:00,65.5,36.4,29.97,SE,134,18.8,18.8,34,0.00,,---,0.00,VWS V14.01,2013-05-07 17:53:00,
2013-05-07 11:58:00,65.5,36.4,29.97,SSE,151,19.7,20.1,34,0.00,,---,0.00,VWS V14.01,2013-05-07 17:58:00,
2013-05-07 12:04:00,65.5,36.4,29.97,SSE,156,23.7,23.7,34,0.00,,---,0.00,VWS V14.01,2013-05-07 18:04:00,
2013-05-07 12:09:00,65.1,35.3,29.97,SSE,148,17.4,19.7,33,0.00,,---,0.00,VWS V14.01,2013-05-07 18:09:00,
2013-05-07 12:15:00,65.1,35.3,29.97,SSE,159,21.9,21.9,33,0.00,,---,0.00,VWS V14.01,2013-05-07 18:15:00,
2013-05-07 12:20:00,65.1,35.3,29.97,SE,137,15.4,22.4,33,0.00,,---,0.00,VWS V14.01,2013-05-07 18:20:00,
2013-05-07 12:25:00,65.5,36.4,29.97,SSE,149,16.8,16.8,34,0.00,,---,0.00,VWS V14.01,2013-05-07 18:25:00,
2013-05-07 12:31:00,65.5,35.6,29.97,SE,137,21.0,21.0,33,0.00,,---,0.00,VWS V14.01,2013-05-07 18:31:00,
2013-05-07 12:36:00,65.1,35.3,29.97,SE,139,24.6,24.6,33,0.00,,---,0.00,VWS V14.01,2013-05-07 18:36:00,
2013-05-07 12:42:00,64.9,35.9,29.94,ESE,123,15.0,17.9,34,0.00,,---,0.00,VWS V14.01,2013-05-07 18:42:00,
2013-05-07 12:47:00,64.9,35.9,29.94,SE,130,18.3,23.7,34,0.00,,---,0.00,VWS V14.01,2013-05-07 18:47:00,
2013-05-07 12:53:00,65.1,36.1,29.94,SE,141,17.0,17.0,34,0.00,,---,0.00,VWS V14.01,2013-05-07 18:53:00,
2013-05-07 12:58:00,65.1,36.1,29.94,SSE,158,17.9,20.6,34,0.00,,---,0.00,VWS V14.01,2013-05-07 18:58:00,
2013-05-07 13:04:00,65.3,35.5,29.94,SE,142,22.8,22.8,33,0.00,,---,0.00,VWS V14.01,2013-05-07 19:04:00,
2013-05-07 13:09:00,65.3,35.5,29.94,SSE,150,21.9,21.9,33,0.00,,---,0.00,VWS V14.01,2013-05-07 19:09:00,
2013-05-07 13:15:00,65.1,36.1,29.94,SSE,147,18.8,18.8,34,0.00,,---,0.00,VWS V14.01,2013-05-07 19:15:00,
2013-05-07 13:21:00,64.2,35.3,29.94,SE,135,15.4,20.6,34,0.00,,---,0.00,VWS V14.01,2013-05-07 19:21:00,
2013-05-07 13:27:00,64.0,35.9,29.94,SE,136,19.2,21.5,35,0.00,,---,0.00,VWS V14.01,2013-05-07 19:27:00,
2013-05-07 13:32:00,64.2,35.3,29.94,SE,129,19.2,19.2,34,0.00,,---,0.00,VWS V14.01,2013-05-07 19:32:00,
2013-05-07 13:38:00,64.4,35.5,29.94,SE,134,18.8,18.8,34,0.00,,---,0.00,VWS V14.01,2013-05-07 19:38:00,
2013-05-07 13:43:00,64.6,35.6,29.94,SSE,150,18.3,20.1,34,0.00,,---,0.00,VWS V14.01,2013-05-07 19:43:00,
2013-05-07 13:49:00,64.6,35.6,29.94,SE,137,20.6,21.0,34,0.00,,---,0.00,VWS V14.01,2013-05-07 19:49:00,
2013-05-07 13:54:00,64.0,35.9,29.94,SE,143,18.8,18.8,35,0.00,,---,0.00,VWS V14.01,2013-05-07 19:54:00,
2013-05-07 14:00:00,64.2,36.0,29.94,SE,133,15.0,19.7,35,0.00,,---,0.00,VWS V14.01,2013-05-07 20:00:00,
2013-05-07 14:05:00,64.8,35.8,29.94,SSE,155,16.8,16.8,34,0.00,,---,0.00,VWS V14.01,2013-05-07 20:05:00,
2013-05-07 14:10:00,65.3,36.2,29.94,SSE,148,17.4,21.0,34,0.00,,---,0.00,VWS V14.01,2013-05-07 20:10:00,
2013-05-07 14:16:00,65.3,36.2,29.94,SSE,147,21.5,21.5,34,0.00,,---,0.00,VWS V14.01,2013-05-07 20:16:00,
2013-05-07 14:21:00,67.1,37.8,29.91,SE,143,19.2,19.2,34,0.00,,---,0.00,VWS V14.01,2013-05-07 20:21:00,
2013-05-07 14:27:00,67.5,37.4,29.91,SE,136,18.3,18.3,33,0.00,,---,0.00,VWS V14.01,2013-05-07 20:27:00,
2013-05-07 14:32:00,67.3,37.2,29.91,SE,127,16.8,19.7,33,0.00,,---,0.00,VWS V14.01,2013-05-07 20:32:00,
2013-05-07 14:38:00,67.3,37.2,29.91,SSE,147,19.7,19.7,33,0.00,,---,0.00,VWS V14.01,2013-05-07 20:38:00,
2013-05-07 14:44:00,67.3,37.2,29.91,East,85,11.0,11.0,33,0.00,,---,0.00,VWS V14.01,2013-05-07 20:44:00,
2013-05-07 14:49:00,67.3,37.2,29.91,ESE,104,13.6,14.1,33,0.00,,---,0.00,VWS V14.01,2013-05-07 20:49:00,
2013-05-07 14:55:00,67.5,37.4,29.91,ESE,105,18.3,18.3,33,0.00,,---,0.00,VWS V14.01,2013-05-07 20:55:00,
2013-05-07 15:00:00,68.0,37.1,29.91,SE,136,17.4,17.4,32,0.00,,---,0.00,VWS V14.01,2013-05-07 21:00:00,
2013-05-07 15:06:00,68.2,37.2,29.88,SSE,156,15.0,16.8,32,0.00,,---,0.00,VWS V14.01,2013-05-07 21:06:00,
2013-05-07 15:11:00,68.4,37.4,29.88,ESE,120,15.4,15.4,32,0.00,,---,0.00,VWS V14.01,2013-05-07 21:11:00,
2013-05-07 15:17:00,68.5,37.5,29.88,ESE,119,12.8,12.8,32,0.00,,---,0.00,VWS V14.01,2013-05-07 21:17:00,
2013-05-07 15:22:00,68.2,36.4,29.88,SE,144,15.0,15.0,31,0.00,,---,0.00,VWS V14.01,2013-05-07 21:22:00,
2013-05-07 15:27:00,68.0,36.3,29.91,East,85,16.3,16.3,31,0.00,,---,0.00,VWS V14.01,2013-05-07 21:27:00,
2013-05-07 15:32:00,68.2,37.2,29.91,ESE,115,13.2,13.2,32,0.00,,---,0.00,VWS V14.01,2013-05-07 21:32:00,
2013-05-07 15:38:00,68.2,37.2,29.91,SE,140,10.5,10.5,32,0.00,,---,0.00,VWS V14.01,2013-05-07 21:38:00,
2013-05-07 15:44:00,68.5,37.5,29.91,SE,142,18.8,18.8,32,0.00,,---,0.00,VWS V14.01,2013-05-07 21:44:00,
2013-05-07 15:49:00,69.6,38.5,29.91,ESE,106,15.0,15.0,32,0.00,,---,0.00,VWS V14.01,2013-05-07 21:49:00,
2013-05-07 15:55:00,69.6,38.5,29.88,SE,129,12.8,12.8,32,0.00,,---,0.00,VWS V14.01,2013-05-07 21:55:00,
2013-05-07 16:00:00,70.3,36.6,29.88,SE,125,12.8,12.8,29,0.00,,---,0.00,VWS V14.01,2013-05-07 22:00:00,
2013-05-07 16:06:00,70.0,36.3,29.88,ESE,122,17.4,17.4,29,0.00,,---,0.00,VWS V14.01,2013-05-07 22:06:00,
2013-05-07 16:11:00,70.0,36.3,29.88,ESE,120,14.1,14.1,29,0.00,,---,0.00,VWS V14.01,2013-05-07 22:11:00,
2013-05-07 16:16:00,70.3,36.6,29.88,ESE,110,8.7,10.1,29,0.00,,---,0.00,VWS V14.01,2013-05-07 22:16:00,
2013-05-07 16:22:00,70.0,35.4,29.88,SE,132,8.7,12.3,28,0.00,,---,0.00,VWS V14.01,2013-05-07 22:22:00,
2013-05-07 16:28:00,69.3,35.7,29.88,ESE,123,11.0,11.0,29,0.00,,---,0.00,VWS V14.01,2013-05-07 22:28:00,
2013-05-07 16:33:00,69.4,36.7,29.88,SE,131,13.2,15.0,30,0.00,,---,0.00,VWS V14.01,2013-05-07 22:33:00,
2013-05-07 16:38:00,70.3,36.6,29.88,ESE,121,15.4,15.4,29,0.00,,---,0.00,VWS V14.01,2013-05-07 22:38:00,
2013-05-07 16:44:00,70.9,37.1,29.88,SE,138,9.6,15.4,29,0.00,,---,0.00,VWS V14.01,2013-05-07 22:44:00,
2013-05-07 16:49:00,70.7,36.0,29.88,ESE,116,13.2,13.2,28,0.00,,---,0.00,VWS V14.01,2013-05-07 22:49:00,
2013-05-07 16:55:00,70.3,35.7,29.88,SSE,154,14.5,14.5,28,0.00,,---,0.00,VWS V14.01,2013-05-07 22:55:00,
2013-05-07 17:01:00,69.6,36.0,29.88,ESE,108,13.2,13.2,29,0.00,,---,0.00,VWS V14.01,2013-05-07 23:01:00,
2013-05-07 17:06:00,69.4,35.8,29.88,East,91,11.9,12.3,29,0.00,,---,0.00,VWS V14.01,2013-05-07 23:06:00,
2013-05-07 17:11:00,69.3,36.5,29.88,ESE,107,15.4,18.3,30,0.00,,---,0.00,VWS V14.01,2013-05-07 23:11:00,
2013-05-07 17:16:00,68.9,36.2,29.88,ESE,105,15.4,15.4,30,0.00,,---,0.00,VWS V14.01,2013-05-07 23:16:00,
2013-05-07 17:22:00,68.7,36.1,29.88,SE,125,12.8,12.8,30,0.00,,---,0.00,VWS V14.01,2013-05-07 23:22:00,
2013-05-07 17:27:00,69.1,37.2,29.88,ESE,119,13.2,13.6,31,0.00,,---,0.00,VWS V14.01,2013-05-07 23:27:00,
2013-05-07 17:33:00,69.8,37.0,29.88,ESE,117,10.5,14.5,30,0.00,,---,0.00,VWS V14.01,2013-05-07 23:33:00,
2013-05-07 17:38:00,69.4,36.7,29.88,SE,144,15.4,15.4,30,0.00,,---,0.00,VWS V14.01,2013-05-07 23:38:00,
2013-05-07 17:44:00,68.7,36.1,29.88,SSE,151,11.4,15.0,30,0.00,,---,0.00,VWS V14.01,2013-05-07 23:44:00,
2013-05-07 17:50:00,68.4,37.4,29.88,SE,135,13.2,16.3,32,0.00,,---,0.00,VWS V14.01,2013-05-07 23:50:00,
2013-05-07 17:55:00,68.9,37.8,29.88,SE,139,19.2,19.2,32,0.00,,---,0.00,VWS V14.01,2013-05-07 23:55:00,
2013-05-07 18:01:00,69.4,38.3,29.88,ESE,115,16.8,17.4,32,0.00,,---,0.00,VWS V14.01,2013-05-08 00:01:00,
2013-05-07 18:06:00,69.4,38.3,29.88,ESE,109,17.4,17.9,32,0.00,,---,0.00,VWS V14.01,2013-05-08 00:06:00,
2013-05-07 18:12:00,69.1,38.0,29.88,SE,125,15.4,17.0,32,0.00,,---,0.00,VWS V14.01,2013-05-08 00:12:00,
2013-05-07 18:18:00,68.9,37.8,29.88,ESE,117,16.3,16.8,32,0.00,,---,0.00,VWS V14.01,2013-05-08 00:18:00,
2013-05-07 18:23:00,68.2,37.2,29.88,ESE,103,16.8,16.8,32,0.00,,---,0.00,VWS V14.01,2013-05-08 00:23:00,
2013-05-07 18:29:00,67.3,37.2,29.88,ESE,107,17.4,17.4,33,0.00,,---,0.00,VWS V14.01,2013-05-08 00:29:00,
2013-05-07 18:35:00,66.7,36.8,29.88,ESE,107,17.4,17.4,33,0.00,,---,0.00,VWS V14.01,2013-05-08 00:35:00,
2013-05-07 18:40:00,65.7,36.6,29.88,ESE,110,15.0,15.4,34,0.00,,---,0.00,VWS V14.01,2013-05-08 00:40:00,
2013-05-07 18:46:00,64.9,35.9,29.88,ESE,106,9.6,12.8,34,0.00,,---,0.00,VWS V14.01,2013-05-08 00:46:00,
2013-05-07 18:51:00,64.4,35.5,29.88,ESE,109,15.4,15.4,34,0.00,,---,0.00,VWS V14.01,2013-05-08 00:51:00,
2013-05-07 18:57:00,64.0,35.9,29.88,East,97,13.2,13.2,35,0.00,,---,0.00,VWS V14.01,2013-05-08 00:57:00,
2013-05-07 19:03:00,63.3,35.9,29.88,ESE,103,12.8,12.8,36,0.00,,---,0.00,VWS V14.01,2013-05-08 01:03:00,
2013-05-07 19:08:00,63.0,35.6,29.88,ESE,105,13.2,13.2,36,0.00,,---,0.00,VWS V14.01,2013-05-08 01:08:00,
2013-05-07 19:14:00,62.6,35.3,29.88,East,100,13.2,13.2,36,0.00,,---,0.00,VWS V14.01,2013-05-08 01:14:00,
2013-05-07 19:19:00,62.1,35.5,29.88,East,96,10.5,11.0,37,0.00,,---,0.00,VWS V14.01,2013-05-08 01:19:00,
2013-05-07 19:24:00,61.7,35.9,29.91,ESE,102,12.8,12.8,38,0.00,,---,0.00,VWS V14.01,2013-05-08 01:24:00,
2013-05-07 19:29:00,61.2,35.4,29.91,East,91,12.3,12.3,38,0.00,,---,0.00,VWS V14.01,2013-05-08 01:29:00,
2013-05-07 19:35:00,60.6,35.5,29.91,East,95,11.0,11.0,39,0.00,,---,0.00,VWS V14.01,2013-05-08 01:35:00,
2013-05-07 19:40:00,60.3,35.9,29.91,East,85,12.8,14.5,40,0.00,,---,0.00,VWS V14.01,2013-05-08 01:40:00,
2013-05-07 19:45:00,59.7,36.0,29.91,East,85,10.1,12.8,41,0.00,,---,0.00,VWS V14.01,2013-05-08 01:45:00,
2013-05-07 19:50:00,59.7,36.0,29.91,East,86,12.8,12.8,41,0.00,,---,0.00,VWS V14.01,2013-05-08 01:50:00,
2013-05-07 19:55:00,59.0,36.6,29.91,East,86,13.2,13.2,43,0.00,,---,0.00,VWS V14.01,2013-05-08 01:55:00,
2013-05-07 20:00:00,58.6,36.8,29.91,ENE,76,13.2,13.2,44,0.00,,---,0.00,VWS V14.01,2013-05-08 02:00:00,
2013-05-07 20:06:00,58.3,37.0,29.91,East,98,13.2,13.2,45,0.00,,---,0.00,VWS V14.01,2013-05-08 02:06:00,
2013-05-07 20:11:00,57.9,36.7,29.91,East,86,12.8,12.8,45,0.00,,---,0.00,VWS V14.01,2013-05-08 02:11:00,
2013-05-07 20:17:00,57.6,36.4,29.91,ENE,77,10.1,10.5,45,0.00,,---,0.00,VWS V14.01,2013-05-08 02:17:00,
2013-05-07 20:22:00,57.4,36.8,29.91,East,83,10.5,12.8,46,0.00,,---,0.00,VWS V14.01,2013-05-08 02:22:00,
2013-05-07 20:28:00,57.2,37.2,29.91,East,84,10.5,12.8,47,0.00,,---,0.00,VWS V14.01,2013-05-08 02:28:00,
2013-05-07 20:33:00,56.8,37.4,29.91,East,80,11.4,13.2,48,0.00,,---,0.00,VWS V14.01,2013-05-08 02:33:00,
2013-05-07 20:39:00,56.7,37.7,29.91,ENE,77,12.3,12.3,49,0.00,,---,0.00,VWS V14.01,2013-05-08 02:39:00,
2013-05-07 20:45:00,56.5,38.1,29.91,ENE,64,10.1,11.0,50,0.00,,---,0.00,VWS V14.01,2013-05-08 02:45:00,
2013-05-07 20:50:00,56.3,38.4,29.91,ENE,62,11.9,11.9,51,0.00,,---,0.00,VWS V14.01,2013-05-08 02:50:00,
2013-05-07 20:56:00,56.1,38.8,29.91,ENE,73,11.0,13.2,52,0.00,,---,0.00,VWS V14.01,2013-05-08 02:56:00,
2013-05-07 21:01:00,55.9,39.1,29.91,ENE,73,13.2,13.2,53,0.00,,---,0.00,VWS V14.01,2013-05-08 03:01:00,
2013-05-07 21:07:00,55.9,39.1,29.91,East,89,8.1,12.3,53,0.00,,---,0.00,VWS V14.01,2013-05-08 03:07:00,
2013-05-07 21:13:00,55.6,38.7,29.91,East,91,12.8,12.8,53,0.00,,---,0.00,VWS V14.01,2013-05-08 03:13:00,
2013-05-07 21:18:00,55.2,38.4,29.91,East,98,9.6,11.0,53,0.00,,---,0.00,VWS V14.01,2013-05-08 03:18:00,
2013-05-07 21:24:00,54.9,38.1,29.91,East,101,9.6,9.6,53,0.00,,---,0.00,VWS V14.01,2013-05-08 03:24:00,
2013-05-07 21:29:00,54.5,37.7,29.91,ESE,102,8.3,10.5,53,0.00,,---,0.00,VWS V14.01,2013-05-08 03:29:00,
2013-05-07 21:35:00,54.3,37.6,29.91,East,98,7.6,8.7,53,0.00,,---,0.00,VWS V14.01,2013-05-08 03:35:00,
2013-05-07 21:41:00,54.0,37.2,29.91,East,85,10.1,10.5,53,0.00,,---,0.00,VWS V14.01,2013-05-08 03:41:00,
2013-05-07 21:46:00,53.6,36.9,29.91,East,85,10.1,10.5,53,0.00,,---,0.00,VWS V14.01,2013-05-08 03:46:00,
2013-05-07 21:52:00,53.4,37.2,29.91,East,85,11.0,11.0,54,0.00,,---,0.00,VWS V14.01,2013-05-08 03:52:00,
2013-05-07 21:58:00,53.4,37.2,29.91,East,97,11.0,11.0,54,0.00,,---,0.00,VWS V14.01,2013-05-08 03:58:00,
2013-05-07 22:01:00,53.4,37.2,29.91,East,80,11.9,11.9,54,0.00,,---,0.00,VWS V14.01,2013-05-08 04:01:00,
2013-05-07 22:03:00,53.4,37.7,29.91,East,84,11.0,13.6,55,0.00,,---,0.00,VWS V14.01,2013-05-08 04:03:00,
2013-05-07 22:04:00,53.4,37.7,29.91,East,83,10.5,12.8,55,0.00,,---,0.00,VWS V14.01,2013-05-08 04:04:00,
2013-05-07 22:05:00,53.4,37.7,29.91,East,89,10.5,11.0,55,0.00,,---,0.00,VWS V14.01,2013-05-08 04:05:00,
2013-05-07 22:10:00,53.8,38.0,29.91,ENE,77,11.0,12.8,55,0.00,,---,0.00,VWS V14.01,2013-05-08 04:10:00,
2013-05-07 22:12:00,53.8,38.5,29.91,East,88,11.0,12.8,56,0.00,,---,0.00,VWS V14.01,2013-05-08 04:12:00,
2013-05-07 22:17:00,54.0,38.6,29.91,ENE,76,12.3,13.2,56,0.00,,---,0.00,VWS V14.01,2013-05-08 04:17:00,
2013-05-07 22:23:00,54.0,39.1,29.91,ESE,106,11.0,14.5,57,0.00,,---,0.00,VWS V14.01,2013-05-08 04:23:00,
2013-05-07 22:28:00,54.1,39.7,29.91,East,94,13.2,13.2,58,0.00,,---,0.00,VWS V14.01,2013-05-08 04:28:00,
2013-05-07 22:34:00,54.0,39.5,29.91,ESE,104,10.1,10.5,58,0.00,,---,0.00,VWS V14.01,2013-05-08 04:34:00,
2013-05-07 22:39:00,54.0,39.5,29.88,East,90,5.8,10.5,58,0.00,,---,0.00,VWS V14.01,2013-05-08 04:39:00,
2013-05-07 22:45:00,54.0,39.5,29.88,East,83,8.7,10.1,58,0.00,,---,0.00,VWS V14.01,2013-05-08 04:45:00,
2013-05-07 22:50:00,54.0,39.5,29.88,East,95,8.7,8.7,58,0.00,,---,0.00,VWS V14.01,2013-05-08 04:50:00,
2013-05-07 22:55:00,54.0,39.5,29.91,East,80,8.7,8.7,58,0.00,,---,0.00,VWS V14.01,2013-05-08 04:55:00,
2013-05-07 23:01:00,53.8,39.8,29.91,East,82,10.5,10.5,59,0.00,,---,0.00,VWS V14.01,2013-05-08 05:01:00,
2013-05-07 23:06:00,53.8,39.8,29.91,ENE,74,10.1,10.5,59,0.00,,---,0.00,VWS V14.01,2013-05-08 05:06:00,
2013-05-07 23:12:00,54.0,41.2,29.91,ENE,61,8.3,10.1,62,0.00,,---,0.00,VWS V14.01,2013-05-08 05:12:00,
2013-05-07 23:18:00,54.1,42.2,29.91,ENE,63,10.1,10.1,64,0.00,,---,0.00,VWS V14.01,2013-05-08 05:18:00,
2013-05-07 23:23:00,54.1,42.7,29.91,ENE,57,8.7,10.1,65,0.00,,---,0.00,VWS V14.01,2013-05-08 05:23:00,
2013-05-07 23:29:00,54.1,42.7,29.91,ENE,72,10.1,10.1,65,0.00,,---,0.00,VWS V14.01,2013-05-08 05:29:00,
2013-05-07 23:34:00,54.1,42.7,29.91,NE,53,8.7,8.7,65,0.00,,---,0.00,VWS V14.01,2013-05-08 05:34:00,
2013-05-07 23:40:00,54.1,43.4,29.91,NE,55,8.7,8.7,67,0.00,,---,0.00,VWS V14.01,2013-05-08 05:40:00,
2013-05-07 23:48:00,54.0,42.9,29.91,ENE,72,10.5,10.5,66,0.00,,---,0.00,VWS V14.01,2013-05-08 05:48:00,
2013-05-07 23:54:00,53.6,42.9,29.91,ENE,60,7.6,8.7,67,0.00,,---,0.00,VWS V14.01,2013-05-08 05:54:00,